Time;durP1;ratioP1;P1;durP2;ratioP2;P2;SDS_P1;SDS_P2;PMS_P1;PMS_P2;Temp;Humidity;BMP_temperature;BMP_pressure;BME280_temperature;BME280_humidity;BME280_pressure;Samples;Min_cycle;Max_cycle;Signal;HPM_P1;HPM_P2
2023/06/24 00:01:03;;;;;;;9.15;8.02;;;;;;;;;;5060409;28;20025;-74
2023/06/24 00:03:29;;;;;;;9.88;7.57;;;;;;;;;;5051586;28;20124;-74
2023/06/24 00:05:56;;;;;;;11.00;7.88;;;;;;;;;;5048198;28;20040;-73
2023/06/24 00:08:23;;;;;;;12.88;8.32;;;;;;;;;;5050386;28;20558;-75
2023/06/24 00:10:49;;;;;;;14.10;9.32;;;;;;;;;;5047765;28;20076;-74
2023/06/24 00:13:16;;;;;;;10.20;8.35;;;;;;;;;;5061630;28;20075;-75
2023/06/24 00:15:43;;;;;;;11.70;8.90;;;;;;;;;;5047925;28;20374;-75
2023/06/24 00:18:12;;;;;;;9.85;8.25;;;;;;;;;;5041098;28;20107;-74
2023/06/24 00:20:38;;;;;;;10.05;8.27;;;;;;;;;;5050990;28;20037;-74
2023/06/24 00:23:05;;;;;;;11.48;7.95;;;;;;;;;;5049192;28;20033;-75
2023/06/24 00:25:31;;;;;;;10.05;8.45;;;;;;;;;;5051578;28;20029;-74
2023/06/24 00:27:59;;;;;;;9.70;7.95;;;;;;;;;;5032524;28;20037;-74
2023/06/24 00:30:27;;;;;;;10.93;8.43;;;;;;;;;;5055760;28;20471;-75
2023/06/24 00:32:53;;;;;;;10.90;8.18;;;;;;;;;;5060156;28;20059;-74
2023/06/24 00:35:19;;;;;;;12.07;8.63;;;;;;;;;;5046308;28;20045;-75
2023/06/24 00:37:47;;;;;;;12.93;8.85;;;;;;;;;;5048441;28;20025;-74
2023/06/24 00:40:16;;;;;;;9.98;8.02;;;;;;;;;;5054689;28;20131;-74
2023/06/24 00:42:44;;;;;;;11.90;8.50;;;;;;;;;;5061986;28;20033;-75
2023/06/24 00:45:10;;;;;;;10.90;8.00;;;;;;;;;;5046432;28;20046;-73
2023/06/24 00:47:36;;;;;;;11.93;8.10;;;;;;;;;;5063619;28;20032;-74
2023/06/24 00:50:03;;;;;;;10.48;7.53;;;;;;;;;;5047253;28;20033;-73
2023/06/24 00:52:29;;;;;;;11.73;8.70;;;;;;;;;;5039082;28;20021;-75
2023/06/24 00:54:55;;;;;;;10.40;7.68;;;;;;;;;;5050183;28;20025;-75
2023/06/24 00:57:23;;;;;;;11.20;7.70;;;;;;;;;;5050959;28;20040;-75
2023/06/24 00:59:53;;;;;;;10.55;8.25;;;;;;;;;;5037749;28;20098;-75
2023/06/24 01:02:19;;;;;;;13.10;8.52;;;;;;;;;;5050049;28;20040;-75
2023/06/24 01:04:45;;;;;;;10.27;7.72;;;;;;;;;;5053328;28;20079;-75
2023/06/24 01:07:11;;;;;;;10.63;7.72;;;;;;;;;;5053618;28;20491;-74
2023/06/24 01:09:41;;;;;;;10.68;7.85;;;;;;;;;;5052154;28;20029;-75
2023/06/24 01:12:07;;;;;;;10.82;8.30;;;;;;;;;;5044035;28;20024;-75
2023/06/24 01:14:34;;;;;;;12.88;8.18;;;;;;;;;;5061566;28;20025;-74
2023/06/24 01:17:06;;;;;;;11.38;7.90;;;;;;;;;;5042785;28;20041;-74
2023/06/24 01:19:35;;;;;;;10.73;7.38;;;;;;;;;;5035033;28;20510;-73
2023/06/24 01:22:11;;;;;;;12.05;8.30;;;;;;;;;;5049575;28;20502;-74
2023/06/24 01:24:40;;;;;;;11.57;8.48;;;;;;;;;;5035597;28;20037;-73
2023/06/24 01:27:06;;;;;;;10.40;8.27;;;;;;;;;;5058752;28;20104;-74
2023/06/24 01:29:45;;;;;;;11.18;8.27;;;;;;;;;;5057111;28;20072;-74
2023/06/24 01:32:11;;;;;;;17.42;8.73;;;;;;;;;;5047486;28;20542;-73
2023/06/24 01:34:52;;;;;;;11.13;8.40;;;;;;;;;;5047002;28;20021;-74
2023/06/24 01:37:19;;;;;;;11.07;8.95;;;;;;;;;;5049708;28;20029;-73
2023/06/24 01:39:50;;;;;;;11.45;9.23;;;;;;;;;;5040391;28;20128;-73
2023/06/24 01:42:17;;;;;;;11.98;8.68;;;;;;;;;;5042200;28;20036;-74
2023/06/24 01:44:44;;;;;;;10.65;7.45;;;;;;;;;;5049612;28;20067;-74
2023/06/24 01:47:12;;;;;;;12.13;8.32;;;;;;;;;;5048457;28;20066;-74
2023/06/24 01:49:40;;;;;;;11.60;8.82;;;;;;;;;;5040521;28;20041;-73
2023/06/24 01:52:08;;;;;;;12.13;10.23;;;;;;;;;;5050360;28;20103;-74
2023/06/24 01:54:35;;;;;;;10.82;8.63;;;;;;;;;;5060556;28;20037;-74
2023/06/24 01:57:02;;;;;;;12.80;10.07;;;;;;;;;;5063402;28;20029;-74
2023/06/24 01:59:29;;;;;;;10.30;8.45;;;;;;;;;;5047077;28;20037;-75
2023/06/24 02:01:56;;;;;;;13.43;10.32;;;;;;;;;;5060207;28;21283;-74
2023/06/24 02:04:23;;;;;;;13.20;8.23;;;;;;;;;;5050847;28;20029;-75
2023/06/24 02:06:50;;;;;;;13.00;8.80;;;;;;;;;;5053885;28;20025;-74
2023/06/24 02:09:17;;;;;;;12.13;9.15;;;;;;;;;;5042289;28;20064;-73
2023/06/24 02:11:43;;;;;;;11.75;8.82;;;;;;;;;;5048062;28;20035;-74
2023/06/24 02:14:10;;;;;;;11.63;8.75;;;;;;;;;;5055349;28;20025;-74
2023/06/24 02:16:37;;;;;;;11.95;9.48;;;;;;;;;;5037832;28;20099;-74
2023/06/24 02:19:04;;;;;;;12.60;9.80;;;;;;;;;;5046692;28;20116;-74
2023/06/24 02:21:30;;;;;;;11.73;9.13;;;;;;;;;;5026409;28;20024;-74
2023/06/24 02:23:57;;;;;;;13.23;9.95;;;;;;;;;;5058789;28;20064;-74
2023/06/24 02:26:25;;;;;;;11.52;9.70;;;;;;;;;;5044114;28;20017;-73
2023/06/24 02:28:52;;;;;;;12.48;9.90;;;;;;;;;;5057710;28;20376;-72
2023/06/24 02:31:18;;;;;;;12.48;9.88;;;;;;;;;;5065739;28;20032;-74
2023/06/24 02:33:44;;;;;;;12.82;10.05;;;;;;;;;;5055504;28;20041;-73
2023/06/24 02:36:11;;;;;;;12.13;9.82;;;;;;;;;;5053637;28;20045;-75
2023/06/24 02:38:37;;;;;;;13.23;10.93;;;;;;;;;;5040609;28;20482;-74
2023/06/24 02:41:04;;;;;;;14.18;11.48;;;;;;;;;;5047451;28;20060;-75
2023/06/24 02:43:35;;;;;;;13.82;10.88;;;;;;;;;;5025884;28;20098;-73
2023/06/24 02:46:02;;;;;;;13.70;11.07;;;;;;;;;;5040439;28;20101;-73
2023/06/24 02:48:30;;;;;;;17.90;11.85;;;;;;;;;;5060187;28;20483;-73
2023/06/24 02:50:56;;;;;;;15.88;11.73;;;;;;;;;;5048283;28;20025;-73
2023/06/24 02:53:22;;;;;;;14.93;12.10;;;;;;;;;;5057346;28;20071;-73
2023/06/24 02:55:48;;;;;;;13.82;12.43;;;;;;;;;;5032622;28;20057;-73
2023/06/24 02:58:15;;;;;;;15.70;12.63;;;;;;;;;;5062525;28;20025;-72
2023/06/24 03:00:42;;;;;;;15.32;13.15;;;;;;;;;;5048141;28;20041;-71
2023/06/24 03:03:08;;;;;;;17.70;12.70;;;;;;;;;;5048055;28;20231;-74
2023/06/24 03:05:34;;;;;;;14.80;11.48;;;;;;;;;;5042581;28;20108;-74
2023/06/24 03:08:03;;;;;;;14.13;12.20;;;;;;;;;;5054101;28;20107;-73
2023/06/24 03:10:29;;;;;;;13.68;11.82;;;;;;;;;;5068438;28;20069;-72
2023/06/24 03:12:55;;;;;;;13.60;11.00;;;;;;;;;;5062573;28;20111;-72
2023/06/24 03:15:21;;;;;;;14.57;11.82;;;;;;;;;;5068154;28;20815;-72
2023/06/24 03:17:47;;;;;;;15.57;12.68;;;;;;;;;;5063132;28;20032;-73
2023/06/24 03:20:13;;;;;;;16.00;12.65;;;;;;;;;;5044916;28;20520;-73
2023/06/24 03:22:39;;;;;;;15.95;11.98;;;;;;;;;;5056437;28;20493;-72
2023/06/24 03:25:05;;;;;;;14.90;11.63;;;;;;;;;;5051808;28;20025;-72
2023/06/24 03:27:33;;;;;;;15.30;11.55;;;;;;;;;;5051833;28;20036;-73
2023/06/24 03:29:59;;;;;;;14.45;12.15;;;;;;;;;;5052340;28;20028;-74
2023/06/24 03:32:25;;;;;;;16.23;12.75;;;;;;;;;;5053865;28;20049;-73
2023/06/24 03:34:51;;;;;;;13.48;11.68;;;;;;;;;;5056730;28;20078;-74
2023/06/24 03:37:17;;;;;;;14.25;11.98;;;;;;;;;;5038859;28;20052;-73
2023/06/24 03:39:43;;;;;;;15.00;11.68;;;;;;;;;;5051766;28;20398;-73
2023/06/24 03:42:09;;;;;;;14.63;12.98;;;;;;;;;;5051847;28;20051;-73
2023/06/24 03:44:35;;;;;;;16.13;12.80;;;;;;;;;;5056907;28;20395;-72
2023/06/24 03:47:01;;;;;;;17.20;13.50;;;;;;;;;;5058010;28;20029;-73
2023/06/24 03:49:27;;;;;;;15.65;12.95;;;;;;;;;;5057589;28;20024;-73
2023/06/24 03:51:53;;;;;;;16.52;13.27;;;;;;;;;;5050748;28;20048;-73
2023/06/24 03:54:19;;;;;;;19.05;14.52;;;;;;;;;;5051713;28;20055;-72
2023/06/24 03:56:45;;;;;;;16.35;13.95;;;;;;;;;;5051879;28;20036;-73
2023/06/24 03:59:12;;;;;;;16.25;14.23;;;;;;;;;;5050720;28;20049;-73
2023/06/24 04:01:38;;;;;;;18.25;14.15;;;;;;;;;;5058598;28;20486;-73
2023/06/24 04:04:05;;;;;;;19.40;14.10;;;;;;;;;;5070074;28;20052;-73
2023/06/24 04:06:31;;;;;;;17.00;13.25;;;;;;;;;;5055574;28;20112;-73
2023/06/24 04:08:58;;;;;;;17.58;12.40;;;;;;;;;;5052535;28;20578;-73
2023/06/24 04:11:24;;;;;;;15.90;13.13;;;;;;;;;;5049448;28;20087;-73
2023/06/24 04:13:53;;;;;;;16.17;13.15;;;;;;;;;;5027969;28;20037;-72
2023/06/24 04:16:19;;;;;;;16.63;14.10;;;;;;;;;;5053493;28;20036;-73
2023/06/24 04:18:45;;;;;;;17.17;13.90;;;;;;;;;;5034797;28;20037;-74
2023/06/24 04:21:11;;;;;;;16.20;12.60;;;;;;;;;;5040747;28;20021;-73
2023/06/24 04:23:37;;;;;;;18.38;14.27;;;;;;;;;;5037864;28;20039;-73
2023/06/24 04:26:03;;;;;;;18.73;14.68;;;;;;;;;;5054576;28;20028;-73
2023/06/24 04:28:29;;;;;;;17.27;13.50;;;;;;;;;;5058704;28;21697;-72
2023/06/24 04:30:56;;;;;;;18.23;14.15;;;;;;;;;;5046865;28;20478;-72
2023/06/24 04:33:23;;;;;;;16.08;13.48;;;;;;;;;;5064000;28;20075;-72
2023/06/24 04:35:51;;;;;;;15.70;12.50;;;;;;;;;;5066843;28;20056;-73
2023/06/24 04:38:18;;;;;;;18.23;13.23;;;;;;;;;;5052528;28;20104;-73
2023/06/24 04:40:45;;;;;;;19.77;13.45;;;;;;;;;;5054277;28;20028;-73
2023/06/24 04:43:11;;;;;;;20.20;13.95;;;;;;;;;;5052016;28;20057;-73
2023/06/24 04:45:38;;;;;;;15.68;12.68;;;;;;;;;;5052223;28;20542;-74
2023/06/24 04:48:05;;;;;;;18.15;13.02;;;;;;;;;;5049711;28;20025;-73
2023/06/24 04:50:31;;;;;;;16.13;12.40;;;;;;;;;;5059391;28;20029;-73
2023/06/24 04:53:04;;;;;;;17.17;13.32;;;;;;;;;;5058567;28;20036;-73
2023/06/24 04:55:30;;;;;;;15.50;12.55;;;;;;;;;;5040233;28;20104;-72
2023/06/24 04:57:58;;;;;;;16.77;11.98;;;;;;;;;;5048835;28;20479;-73
2023/06/24 05:00:25;;;;;;;14.10;11.75;;;;;;;;;;5055133;28;20045;-73
2023/06/24 05:02:51;;;;;;;16.52;12.77;;;;;;;;;;5055379;28;20029;-71
2023/06/24 05:05:17;;;;;;;14.63;11.98;;;;;;;;;;5053535;28;20120;-72
2023/06/24 05:07:44;;;;;;;15.68;11.90;;;;;;;;;;5066099;28;20028;-73
2023/06/24 05:10:10;;;;;;;13.98;10.50;;;;;;;;;;5052500;28;20032;-74
2023/06/24 05:12:36;;;;;;;12.98;10.50;;;;;;;;;;5058662;28;20025;-73
2023/06/24 05:15:02;;;;;;;15.65;11.05;;;;;;;;;;5073202;28;20374;-73
2023/06/24 05:17:28;;;;;;;15.13;10.60;;;;;;;;;;5068708;28;20041;-73
2023/06/24 05:19:56;;;;;;;14.30;10.13;;;;;;;;;;5052079;28;20163;-73
2023/06/24 05:22:22;;;;;;;14.48;11.27;;;;;;;;;;5035577;28;20022;-73
2023/06/24 05:24:48;;;;;;;16.20;11.75;;;;;;;;;;5053169;28;20025;-72
2023/06/24 05:27:17;;;;;;;19.55;14.95;;;;;;;;;;5064147;28;20020;-73
2023/06/24 05:29:43;;;;;;;16.90;12.17;;;;;;;;;;5057130;28;20021;-73
2023/06/24 05:32:09;;;;;;;17.10;12.40;;;;;;;;;;5052818;28;20131;-72
2023/06/24 05:34:35;;;;;;;15.55;11.30;;;;;;;;;;5052960;28;20017;-73
2023/06/24 05:37:01;;;;;;;16.20;12.18;;;;;;;;;;5056434;28;20025;-73
2023/06/24 05:39:27;;;;;;;15.50;11.43;;;;;;;;;;5062752;28;20044;-72
2023/06/24 05:41:53;;;;;;;14.68;11.45;;;;;;;;;;5049290;28;20028;-72
2023/06/24 05:44:21;;;;;;;15.75;12.10;;;;;;;;;;5064147;28;20040;-73
2023/06/24 05:46:46;;;;;;;14.05;11.00;;;;;;;;;;5062632;28;20044;-73
2023/06/24 05:49:13;;;;;;;14.82;11.00;;;;;;;;;;5061406;28;20037;-73
2023/06/24 05:51:42;;;;;;;14.93;10.48;;;;;;;;;;5063209;28;20025;-74
2023/06/24 05:54:08;;;;;;;12.27;8.77;;;;;;;;;;5074246;28;20055;-73
2023/06/24 05:56:34;;;;;;;12.45;8.93;;;;;;;;;;5055566;28;20112;-73
2023/06/24 05:59:00;;;;;;;12.02;8.70;;;;;;;;;;5087323;28;20041;-73
2023/06/24 06:01:26;;;;;;;12.10;8.90;;;;;;;;;;5060754;28;20098;-73
2023/06/24 06:03:52;;;;;;;12.25;8.90;;;;;;;;;;5054090;28;20021;-73
2023/06/24 06:06:19;;;;;;;12.25;8.52;;;;;;;;;;5069437;28;20119;-73
2023/06/24 06:08:45;;;;;;;12.70;8.73;;;;;;;;;;5067694;28;20041;-73
2023/06/24 06:11:12;;;;;;;13.65;8.45;;;;;;;;;;5075088;28;20134;-72
2023/06/24 06:13:38;;;;;;;14.05;7.65;;;;;;;;;;5062861;28;20037;-72
2023/06/24 06:16:04;;;;;;;11.23;7.57;;;;;;;;;;5074839;28;20039;-73
2023/06/24 06:18:31;;;;;;;9.95;7.28;;;;;;;;;;5073744;28;20033;-72
2023/06/24 06:20:57;;;;;;;9.55;7.40;;;;;;;;;;5074077;28;20097;-73
2023/06/24 06:23:30;;;;;;;11.98;8.38;;;;;;;;;;5062976;28;20051;-71
2023/06/24 06:25:56;;;;;;;11.20;7.90;;;;;;;;;;5063608;28;20052;-73
2023/06/24 06:28:23;;;;;;;22.05;9.85;;;;;;;;;;5063442;28;20025;-73
2023/06/24 06:30:49;;;;;;;11.32;8.82;;;;;;;;;;5062546;28;20077;-73
2023/06/24 06:33:15;;;;;;;12.25;9.57;;;;;;;;;;5030068;28;20076;-73
2023/06/24 06:35:41;;;;;;;13.00;9.52;;;;;;;;;;5035856;28;20029;-74
2023/06/24 06:38:07;;;;;;;14.20;10.10;;;;;;;;;;5029790;28;20041;-74
2023/06/24 06:40:33;;;;;;;14.60;7.60;;;;;;;;;;5026970;28;20037;-73
2023/06/24 06:42:59;;;;;;;14.20;10.30;;;;;;;;;;5029800;28;20021;-72
2023/06/24 06:45:26;;;;;;;13.43;9.88;;;;;;;;;;5027866;28;20543;-73
2023/06/24 06:47:52;;;;;;;14.38;10.55;;;;;;;;;;5028421;28;20129;-72
2023/06/24 06:50:18;;;;;;;13.15;9.50;;;;;;;;;;5043411;28;20033;-73
2023/06/24 06:52:45;;;;;;;14.15;9.48;;;;;;;;;;5050132;28;20041;-72
2023/06/24 06:55:11;;;;;;;13.15;9.60;;;;;;;;;;5039028;28;20033;-73
2023/06/24 06:57:37;;;;;;;6.20;3.53;;;;;;;;;;5028886;28;20553;-72
2023/06/24 07:00:04;;;;;;;8.13;3.63;;;;;;;;;;5028272;28;20045;-73
2023/06/24 07:02:30;;;;;;;11.00;6.97;;;;;;;;;;5009113;28;20037;-74
2023/06/24 07:04:56;;;;;;;7.95;4.38;;;;;;;;;;5028612;28;20025;-74
2023/06/24 07:07:22;;;;;;;6.32;3.53;;;;;;;;;;5011523;28;20091;-73
2023/06/24 07:09:50;;;;;;;6.40;3.72;;;;;;;;;;5027555;28;20034;-72
2023/06/24 07:12:16;;;;;;;6.20;3.60;;;;;;;;;;5009614;28;20546;-72
2023/06/24 07:14:42;;;;;;;9.75;6.15;;;;;;;;;;5009079;28;20520;-75
2023/06/24 07:17:08;;;;;;;8.80;3.95;;;;;;;;;;5027404;28;20131;-73
2023/06/24 07:19:34;;;;;;;8.35;3.60;;;;;;;;;;5027917;28;20048;-73
2023/06/24 07:22:00;;;;;;;8.50;5.65;;;;;;;;;;5027309;28;20104;-72
2023/06/24 07:24:26;;;;;;;7.78;4.85;;;;;;;;;;5027400;28;20025;-73
2023/06/24 07:26:52;;;;;;;8.45;5.45;;;;;;;;;;5027354;28;20056;-73
2023/06/24 07:29:18;;;;;;;8.57;5.35;;;;;;;;;;5028286;28;20054;-72
2023/06/24 07:31:44;;;;;;;6.45;3.92;;;;;;;;;;5010270;28;20454;-74
2023/06/24 07:34:10;;;;;;;7.18;4.20;;;;;;;;;;5066570;28;20029;-73
2023/06/24 07:36:36;;;;;;;7.85;5.47;;;;;;;;;;5048161;28;20033;-73
2023/06/24 07:39:02;;;;;;;6.95;4.57;;;;;;;;;;5035755;28;20064;-74
2023/06/24 07:41:28;;;;;;;7.68;4.90;;;;;;;;;;5063561;28;20041;-74
2023/06/24 07:43:55;;;;;;;8.82;5.97;;;;;;;;;;5037807;28;20026;-73
2023/06/24 07:46:21;;;;;;;6.50;4.50;;;;;;;;;;5058463;28;20443;-73
2023/06/24 07:48:47;;;;;;;8.82;5.07;;;;;;;;;;5052844;28;20501;-74
2023/06/24 07:51:13;;;;;;;10.02;6.53;;;;;;;;;;5040968;28;20029;-72
2023/06/24 07:53:39;;;;;;;10.98;7.40;;;;;;;;;;5042432;28;20108;-72
2023/06/24 07:56:05;;;;;;;10.05;5.72;;;;;;;;;;5038463;28;20108;-74
2023/06/24 07:58:31;;;;;;;8.07;4.90;;;;;;;;;;5051678;28;20438;-73
2023/06/24 08:00:57;;;;;;;9.13;6.05;;;;;;;;;;5057861;28;20191;-72
2023/06/24 08:03:23;;;;;;;7.95;4.57;;;;;;;;;;5052847;28;20025;-72
2023/06/24 08:05:50;;;;;;;8.68;5.57;;;;;;;;;;5048928;28;20510;-73
2023/06/24 08:08:19;;;;;;;6.88;5.00;;;;;;;;;;5048504;28;20034;-72
2023/06/24 08:10:45;;;;;;;7.10;5.15;;;;;;;;;;5044364;28;20040;-73
2023/06/24 08:13:11;;;;;;;7.50;5.47;;;;;;;;;;5062800;28;20091;-73
2023/06/24 08:15:37;;;;;;;6.53;4.90;;;;;;;;;;5048220;28;20033;-73
2023/06/24 08:18:03;;;;;;;7.25;4.30;;;;;;;;;;5052427;28;20028;-73
2023/06/24 08:20:29;;;;;;;8.48;4.97;;;;;;;;;;5049743;28;20051;-73
2023/06/24 08:22:55;;;;;;;6.55;4.38;;;;;;;;;;5066670;28;20103;-74
2023/06/24 08:25:21;;;;;;;7.57;3.28;;;;;;;;;;5058387;28;20108;-73
2023/06/24 08:27:47;;;;;;;6.25;4.00;;;;;;;;;;5039817;28;20522;-73
2023/06/24 08:30:18;;;;;;;6.88;3.88;;;;;;;;;;5064425;28;20032;-73
2023/06/24 08:32:44;;;;;;;5.05;2.58;;;;;;;;;;5055527;28;20048;-73
2023/06/24 08:35:10;;;;;;;7.00;3.17;;;;;;;;;;5052911;28;20029;-74
2023/06/24 08:37:36;;;;;;;7.25;3.00;;;;;;;;;;5051666;28;20060;-73
2023/06/24 08:40:04;;;;;;;5.40;3.20;;;;;;;;;;5051963;28;20032;-75
2023/06/24 08:42:30;;;;;;;7.93;4.80;;;;;;;;;;5052353;28;20497;-73
2023/06/24 08:44:56;;;;;;;5.53;2.83;;;;;;;;;;5050628;28;20029;-72
2023/06/24 08:47:24;;;;;;;6.57;3.78;;;;;;;;;;5057207;28;20025;-73
2023/06/24 08:49:57;;;;;;;5.15;3.58;;;;;;;;;;5063339;28;20044;-72
2023/06/24 08:52:26;;;;;;;7.47;3.38;;;;;;;;;;5049896;28;20037;-73
2023/06/24 08:54:56;;;;;;;6.45;3.00;;;;;;;;;;5039048;28;20040;-74
2023/06/24 08:57:24;;;;;;;5.82;3.15;;;;;;;;;;5059299;28;20033;-74
2023/06/24 08:59:50;;;;;;;5.93;2.50;;;;;;;;;;5057893;28;20037;-74
2023/06/24 09:02:16;;;;;;;11.05;4.75;;;;;;;;;;5062872;28;20029;-74
2023/06/24 09:04:42;;;;;;;6.63;3.92;;;;;;;;;;5055027;28;20037;-74
2023/06/24 09:07:08;;;;;;;8.57;4.88;;;;;;;;;;5048195;28;20510;-74
2023/06/24 09:09:43;;;;;;;7.50;3.72;;;;;;;;;;5060309;28;20029;-74
2023/06/24 09:12:10;;;;;;;7.07;4.43;;;;;;;;;;5064040;28;20052;-74
2023/06/24 09:14:36;;;;;;;6.90;3.63;;;;;;;;;;5067994;28;20074;-73
2023/06/24 09:17:03;;;;;;;8.75;5.53;;;;;;;;;;5064113;28;20031;-72
2023/06/24 09:19:32;;;;;;;6.97;4.18;;;;;;;;;;5057923;28;20033;-73
2023/06/24 09:22:07;;;;;;;8.10;5.50;;;;;;;;;;5049250;28;20025;-73
2023/06/24 09:24:34;;;;;;;7.93;5.00;;;;;;;;;;5053309;28;20418;-73
2023/06/24 09:27:00;;;;;;;6.78;3.70;;;;;;;;;;5059103;28;20060;-72
2023/06/24 09:29:27;;;;;;;5.72;3.42;;;;;;;;;;5057615;28;20029;-73
2023/06/24 09:31:55;;;;;;;5.50;3.40;;;;;;;;;;5036504;28;20032;-73
2023/06/24 09:34:22;;;;;;;6.70;3.05;;;;;;;;;;5049415;28;20040;-73
2023/06/24 09:36:55;;;;;;;6.57;3.60;;;;;;;;;;5043516;28;20017;-73
2023/06/24 09:39:22;;;;;;;5.05;3.13;;;;;;;;;;5043481;28;20379;-73
2023/06/24 09:41:51;;;;;;;5.30;2.75;;;;;;;;;;5049196;28;20032;-73
2023/06/24 09:44:19;;;;;;;5.47;3.10;;;;;;;;;;5051408;28;20120;-73
2023/06/24 09:46:45;;;;;;;3.92;2.25;;;;;;;;;;5037898;28;20033;-74
2023/06/24 09:49:11;;;;;;;5.22;2.78;;;;;;;;;;5042849;28;20179;-73
2023/06/24 09:51:39;;;;;;;5.10;2.17;;;;;;;;;;5047511;28;20029;-73
2023/06/24 09:54:09;;;;;;;4.65;2.42;;;;;;;;;;5044194;28;20439;-73
2023/06/24 09:56:34;;;;;;;;;;;;;;;;;;5049615;28;20016;-72
2023/06/24 09:59:01;;;;;;;4.72;2.67;;;;;;;;;;5054706;28;20330;-72
2023/06/24 10:01:27;;;;;;;4.35;2.15;;;;;;;;;;5036407;28;20495;-73
2023/06/24 10:03:53;;;;;;;4.90;2.63;;;;;;;;;;5045505;28;20068;-73
2023/06/24 10:06:19;;;;;;;4.55;2.78;;;;;;;;;;5027567;28;20052;-74
2023/06/24 10:08:45;;;;;;;5.65;3.38;;;;;;;;;;5053352;28;20060;-73
2023/06/24 10:11:12;;;;;;;4.20;2.47;;;;;;;;;;5044257;28;20043;-74
2023/06/24 10:13:38;;;;;;;6.10;2.80;;;;;;;;;;5062170;28;20039;-74
2023/06/24 10:16:04;;;;;;;4.43;2.35;;;;;;;;;;5068651;28;20347;-74
2023/06/24 10:18:38;;;;;;;7.03;3.03;;;;;;;;;;5063084;28;20048;-75
2023/06/24 10:21:05;;;;;;;5.60;2.95;;;;;;;;;;5056113;28;20033;-75
2023/06/24 10:23:40;;;;;;;6.05;2.97;;;;;;;;;;5065152;28;20039;-73
2023/06/24 10:26:22;;;;;;;4.82;2.55;;;;;;;;;;5056429;28;20030;-73
2023/06/24 10:29:06;;;;;;;4.93;2.95;;;;;;;;;;5044887;28;20029;-74
2023/06/24 10:31:44;;;;;;;5.68;3.22;;;;;;;;;;5056584;28;20033;-73
2023/06/24 10:34:19;;;;;;;5.22;2.55;;;;;;;;;;5031998;28;20480;-73
2023/06/24 10:37:02;;;;;;;4.95;3.05;;;;;;;;;;5034089;28;20030;-73
2023/06/24 10:39:40;;;;;;;4.53;2.67;;;;;;;;;;5025085;28;20095;-73
2023/06/24 10:42:21;;;;;;;3.50;2.50;;;;;;;;;;5030133;28;20052;-75
2023/06/24 10:44:48;;;;;;;4.70;2.45;;;;;;;;;;5027295;28;20088;-73
2023/06/24 10:47:14;;;;;;;5.03;3.30;;;;;;;;;;5027976;28;20029;-73
2023/06/24 10:49:40;;;;;;;5.35;3.20;;;;;;;;;;5035904;28;20067;-73
2023/06/24 10:52:09;;;;;;;6.40;3.42;;;;;;;;;;5029813;28;21793;-74
2023/06/24 10:54:39;;;;;;;7.72;2.80;;;;;;;;;;5027132;28;20551;-74
2023/06/24 10:57:05;;;;;;;6.10;2.95;;;;;;;;;;5033164;28;20025;-74
2023/06/24 10:59:49;;;;;;;6.57;3.33;;;;;;;;;;5043060;28;20403;-74
2023/06/24 11:02:16;;;;;;;5.88;3.13;;;;;;;;;;5020337;28;20128;-76
2023/06/24 11:04:46;;;;;;;6.10;3.00;;;;;;;;;;5032847;28;20025;-73
2023/06/24 11:07:12;;;;;;;4.95;3.00;;;;;;;;;;5037776;28;20594;-74
2023/06/24 11:09:38;;;;;;;5.35;2.90;;;;;;;;;;5044083;28;20057;-74
2023/06/24 11:12:04;;;;;;;5.82;3.10;;;;;;;;;;5034367;28;20089;-75
2023/06/24 11:14:33;;;;;;;8.20;4.90;;;;;;;;;;5025136;28;20643;-80
2023/06/24 11:17:01;;;;;;;11.27;6.77;;;;;;;;;;5010337;28;20045;-75
2023/06/24 11:19:28;;;;;;;8.27;3.90;;;;;;;;;;5025976;28;20296;-76
2023/06/24 11:21:54;;;;;;;8.65;5.47;;;;;;;;;;5003579;28;20064;-75
2023/06/24 11:24:20;;;;;;;6.03;3.95;;;;;;;;;;5024287;28;20053;-76
2023/06/24 11:26:46;;;;;;;9.07;6.80;;;;;;;;;;5013630;28;20458;-76
2023/06/24 11:29:12;;;;;;;5.65;3.13;;;;;;;;;;5027008;28;20034;-76
2023/06/24 11:31:38;;;;;;;3.70;2.45;;;;;;;;;;5011100;28;20033;-76
2023/06/24 11:34:05;;;;;;;7.65;5.22;;;;;;;;;;5045713;28;20756;-76
2023/06/24 11:36:31;;;;;;;4.82;3.42;;;;;;;;;;5048658;28;20197;-74
2023/06/24 11:38:57;;;;;;;7.57;4.43;;;;;;;;;;5044885;28;20041;-77
2023/06/24 11:41:25;;;;;;;6.43;3.70;;;;;;;;;;5053733;28;20042;-75
2023/06/24 11:43:52;;;;;;;7.82;3.95;;;;;;;;;;5053363;28;20028;-77
2023/06/24 11:46:21;;;;;;;7.57;3.50;;;;;;;;;;5060479;28;20036;-77
2023/06/24 11:48:47;;;;;;;;;;;;;;;;;;5047236;28;20032;-77
2023/06/24 11:51:14;;;;;;;11.63;5.55;;;;;;;;;;5048621;28;19990;-76
2023/06/24 11:53:44;;;;;;;8.57;4.22;;;;;;;;;;5046732;28;20048;-77
2023/06/24 11:56:10;;;;;;;;;;;;;;;;;;5027893;28;20056;-77
2023/06/24 11:58:36;;;;;;;8.07;4.93;;;;;;;;;;5065295;28;19909;-77
2023/06/24 12:01:02;;;;;;;6.85;3.60;;;;;;;;;;5046565;28;20037;-77
2023/06/24 12:03:32;;;;;;;6.75;4.05;;;;;;;;;;5050316;28;20024;-75
2023/06/24 12:05:58;;;;;;;8.15;5.28;;;;;;;;;;5046379;28;20024;-77
2023/06/24 12:08:24;;;;;;;10.20;6.60;;;;;;;;;;5044275;28;20057;-76
2023/06/24 12:10:50;;;;;;;6.97;4.47;;;;;;;;;;5058355;28;20127;-76
2023/06/24 12:13:16;;;;;;;10.05;6.40;;;;;;;;;;5034809;28;20045;-76
2023/06/24 12:15:43;;;;;;;6.65;3.97;;;;;;;;;;5037336;28;20025;-77
2023/06/24 12:18:09;;;;;;;7.35;3.97;;;;;;;;;;5045708;28;20060;-78
2023/06/24 12:20:36;;;;;;;8.80;5.50;;;;;;;;;;5050218;28;21365;-77
2023/06/24 12:23:22;;;;;;;7.53;4.97;;;;;;;;;;5045304;28;20040;-78
2023/06/24 12:25:49;;;;;;;6.70;3.50;;;;;;;;;;5043036;28;20033;-77
2023/06/24 12:28:15;;;;;;;6.63;4.55;;;;;;;;;;5032104;28;20029;-76
2023/06/24 12:30:41;;;;;;;9.68;3.97;;;;;;;;;;5058054;28;20037;-76
2023/06/24 12:33:08;;;;;;;7.88;4.28;;;;;;;;;;5047905;28;20044;-77
2023/06/24 12:35:34;;;;;;;5.20;3.25;;;;;;;;;;5052237;28;20025;-76
2023/06/24 12:38:01;;;;;;;6.90;4.72;;;;;;;;;;5066020;28;20056;-76
2023/06/24 12:40:27;;;;;;;8.50;5.10;;;;;;;;;;5064569;28;20033;-79
2023/06/24 12:42:54;;;;;;;8.35;5.53;;;;;;;;;;5050857;28;20032;-76
2023/06/24 12:45:20;;;;;;;5.57;3.75;;;;;;;;;;5050472;28;20120;-78
2023/06/24 12:47:46;;;;;;;7.40;4.43;;;;;;;;;;5049426;28;20032;-77
2023/06/24 12:50:14;;;;;;;5.88;3.55;;;;;;;;;;5043596;28;20044;-76
2023/06/24 12:52:40;;;;;;;6.53;3.70;;;;;;;;;;5045432;28;20037;-77
2023/06/24 12:55:07;;;;;;;10.32;4.47;;;;;;;;;;5051954;28;20129;-77
2023/06/24 12:57:33;;;;;;;5.93;3.33;;;;;;;;;;5044842;28;20036;-77
2023/06/24 12:59:59;;;;;;;6.97;3.72;;;;;;;;;;5064154;28;20048;-78
2023/06/24 13:02:25;;;;;;;6.97;3.67;;;;;;;;;;5050487;28;20033;-77
2023/06/24 13:04:52;;;;;;;7.38;4.53;;;;;;;;;;5047177;28;20054;-75
2023/06/24 13:07:18;;;;;;;7.93;4.90;;;;;;;;;;5031638;28;20395;-75
2023/06/24 13:09:44;;;;;;;7.68;5.07;;;;;;;;;;5052220;28;20033;-75
2023/06/24 13:12:10;;;;;;;4.38;2.92;;;;;;;;;;5045461;28;20068;-76
2023/06/24 13:14:36;;;;;;;6.45;3.22;;;;;;;;;;5055307;28;20029;-76
2023/06/24 13:17:02;;;;;;;8.07;4.45;;;;;;;;;;5048435;28;20032;-77
2023/06/24 13:19:28;;;;;;;6.22;4.05;;;;;;;;;;5049541;28;20064;-75
2023/06/24 13:21:54;;;;;;;6.65;3.67;;;;;;;;;;5049373;28;20033;-76
2023/06/24 13:24:20;;;;;;;5.90;3.92;;;;;;;;;;5043691;28;20034;-77
2023/06/24 13:26:46;;;;;;;13.75;4.95;;;;;;;;;;5049940;28;20029;-78
2023/06/24 13:29:13;;;;;;;5.45;3.45;;;;;;;;;;5050315;28;20060;-76
2023/06/24 13:31:39;;;;;;;6.05;3.05;;;;;;;;;;5050263;28;20028;-76
2023/06/24 13:34:06;;;;;;;6.95;3.45;;;;;;;;;;5046460;28;20553;-77
2023/06/24 13:36:36;;;;;;;6.93;3.60;;;;;;;;;;5042821;28;20040;-76
2023/06/24 13:39:03;;;;;;;7.05;3.47;;;;;;;;;;5030975;28;20092;-78
2023/06/24 13:41:31;;;;;;;9.35;4.00;;;;;;;;;;5050020;28;20127;-76
2023/06/24 13:44:04;;;;;;;7.32;3.92;;;;;;;;;;5050153;28;20036;-76
2023/06/24 13:46:31;;;;;;;6.72;4.15;;;;;;;;;;5049947;28;20489;-75
2023/06/24 13:48:57;;;;;;;5.68;3.22;;;;;;;;;;5047102;28;20557;-77
2023/06/24 13:51:24;;;;;;;5.07;3.20;;;;;;;;;;5043743;28;20128;-77
2023/06/24 13:53:54;;;;;;;5.05;3.10;;;;;;;;;;5040189;28;20033;-78
2023/06/24 13:56:20;;;;;;;6.95;4.68;;;;;;;;;;5041428;28;20549;-78
2023/06/24 13:58:47;;;;;;;6.25;3.53;;;;;;;;;;5039099;28;20033;-78
2023/06/24 14:01:13;;;;;;;7.57;3.63;;;;;;;;;;5043022;28;20033;-77
2023/06/24 14:03:39;;;;;;;7.03;4.45;;;;;;;;;;5040405;28;20032;-79
2023/06/24 14:06:05;;;;;;;6.68;4.43;;;;;;;;;;5040265;28;20067;-77
2023/06/24 14:08:32;;;;;;;7.50;3.70;;;;;;;;;;5044347;28;20064;-77
2023/06/24 14:10:58;;;;;;;5.38;3.88;;;;;;;;;;5044502;28;20112;-78
2023/06/24 14:13:25;;;;;;;5.80;3.92;;;;;;;;;;5039841;28;20056;-78
2023/06/24 14:15:51;;;;;;;5.63;3.05;;;;;;;;;;5038747;28;20028;-78
2023/06/24 14:18:17;;;;;;;4.38;2.90;;;;;;;;;;5045454;28;20032;-76
2023/06/24 14:20:43;;;;;;;4.93;3.03;;;;;;;;;;5041781;28;20048;-75
2023/06/24 14:23:09;;;;;;;4.60;2.95;;;;;;;;;;5041739;28;20158;-76
2023/06/24 14:25:37;;;;;;;5.22;3.28;;;;;;;;;;5042277;28;20036;-75
2023/06/24 14:28:03;;;;;;;4.63;3.20;;;;;;;;;;5046198;28;20025;-75
2023/06/24 14:30:29;;;;;;;11.63;3.90;;;;;;;;;;5048847;28;20040;-76
2023/06/24 14:32:55;;;;;;;5.05;2.67;;;;;;;;;;5035506;28;20045;-77